sensor_id;sensor_type;location;lat;lon;timestamp;pressure;altitude;pressure_sealevel;temperature;humidity
47811;BME280;33575;52.600;7.318;2023-02-13T00:00:12;103632.38;;;8.36;89.24
47811;BME280;33575;52.600;7.318;2023-02-13T00:02:39;103633.68;;;8.40;89.10
47811;BME280;33575;52.600;7.318;2023-02-13T00:05:09;103631.91;;;8.40;89.10
47811;BME280;33575;52.600;7.318;2023-02-13T00:07:40;103631.58;;;8.42;88.77
47811;BME280;33575;52.600;7.318;2023-02-13T00:10:11;103626.92;;;8.43;89.01
47811;BME280;33575;52.600;7.318;2023-02-13T00:12:40;103624.80;;;8.42;89.00
47811;BME280;33575;52.600;7.318;2023-02-13T00:15:11;103621.56;;;8.42;88.48
47811;BME280;33575;52.600;7.318;2023-02-13T00:17:42;103619.17;;;8.42;89.11
47811;BME280;33575;52.600;7.318;2023-02-13T00:20:12;103616.46;;;8.42;89.10
47811;BME280;33575;52.600;7.318;2023-02-13T00:22:42;103617.47;;;8.43;89.25
47811;BME280;33575;52.600;7.318;2023-02-13T00:25:12;103618.77;;;8.45;89.09
47811;BME280;33575;52.600;7.318;2023-02-13T00:27:42;103617.25;;;8.45;89.00
47811;BME280;33575;52.600;7.318;2023-02-13T00:32:43;103618.31;;;8.36;88.75
47811;BME280;33575;52.600;7.318;2023-02-13T00:35:13;103615.69;;;8.28;89.47
47811;BME280;33575;52.600;7.318;2023-02-13T00:37:43;103613.95;;;8.26;89.42
47811;BME280;33575;52.600;7.318;2023-02-13T00:40:14;103615.08;;;8.26;89.19
47811;BME280;33575;52.600;7.318;2023-02-13T00:42:44;103616.37;;;8.24;88.85
47811;BME280;33575;52.600;7.318;2023-02-13T00:45:15;103616.54;;;8.22;89.19
47811;BME280;33575;52.600;7.318;2023-02-13T00:47:45;103616.01;;;8.22;89.63
47811;BME280;33575;52.600;7.318;2023-02-13T00:50:16;103613.46;;;8.24;89.55
47811;BME280;33575;52.600;7.318;2023-02-13T00:52:46;103614.39;;;8.27;89.52
47811;BME280;33575;52.600;7.318;2023-02-13T00:55:16;103614.84;;;8.29;88.91
47811;BME280;33575;52.600;7.318;2023-02-13T00:57:46;103612.90;;;8.27;88.50
47811;BME280;33575;52.600;7.318;2023-02-13T01:00:17;103613.26;;;8.25;88.71
47811;BME280;33575;52.600;7.318;2023-02-13T01:02:47;103614.61;;;8.24;88.42
47811;BME280;33575;52.600;7.318;2023-02-13T01:05:18;103614.63;;;8.22;88.98
47811;BME280;33575;52.600;7.318;2023-02-13T01:07:49;103617.34;;;8.22;88.70
47811;BME280;33575;52.600;7.318;2023-02-13T01:10:18;103616.23;;;8.24;88.52
47811;BME280;33575;52.600;7.318;2023-02-13T01:12:48;103618.08;;;8.24;88.42
47811;BME280;33575;52.600;7.318;2023-02-13T01:15:20;103615.56;;;8.21;89.15
47811;BME280;33575;52.600;7.318;2023-02-13T01:17:52;103613.95;;;8.15;89.40
47811;BME280;33575;52.600;7.318;2023-02-13T01:20:20;103612.41;;;8.13;89.10
47811;BME280;33575;52.600;7.318;2023-02-13T01:22:51;103608.98;;;8.13;89.38
47811;BME280;33575;52.600;7.318;2023-02-13T01:25:22;103608.26;;;8.14;89.61
47811;BME280;33575;52.600;7.318;2023-02-13T01:27:52;103605.35;;;8.13;89.49
47811;BME280;33575;52.600;7.318;2023-02-13T01:30:22;103606.34;;;8.13;89.68
47811;BME280;33575;52.600;7.318;2023-02-13T01:32:53;103605.09;;;8.14;89.64
47811;BME280;33575;52.600;7.318;2023-02-13T01:35:24;103604.83;;;8.15;89.87
47811;BME280;33575;52.600;7.318;2023-02-13T01:37:54;103603.40;;;8.15;89.97
47811;BME280;33575;52.600;7.318;2023-02-13T01:40:25;103606.48;;;8.11;90.04
47811;BME280;33575;52.600;7.318;2023-02-13T01:42:55;103605.68;;;8.12;89.28
47811;BME280;33575;52.600;7.318;2023-02-13T01:45:28;103606.92;;;8.13;89.35
47811;BME280;33575;52.600;7.318;2023-02-13T01:47:59;103603.69;;;8.13;89.72
47811;BME280;33575;52.600;7.318;2023-02-13T01:50:31;103600.96;;;8.13;89.78
47811;BME280;33575;52.600;7.318;2023-02-13T01:53:03;103599.93;;;8.12;89.94
47811;BME280;33575;52.600;7.318;2023-02-13T01:55:28;103594.70;;;8.14;89.86
47811;BME280;33575;52.600;7.318;2023-02-13T01:58:01;103595.78;;;8.15;89.62
47811;BME280;33575;52.600;7.318;2023-02-13T02:00:28;103594.85;;;8.16;89.66
47811;BME280;33575;52.600;7.318;2023-02-13T02:03:01;103586.96;;;8.13;89.85
47811;BME280;33575;52.600;7.318;2023-02-13T02:05:30;103581.49;;;8.11;89.76
47811;BME280;33575;52.600;7.318;2023-02-13T02:08:02;103589.81;;;8.07;89.78
47811;BME280;33575;52.600;7.318;2023-02-13T02:10:30;103589.19;;;8.05;89.89
47811;BME280;33575;52.600;7.318;2023-02-13T02:13:05;103588.74;;;8.02;89.64
47811;BME280;33575;52.600;7.318;2023-02-13T02:15:31;103588.49;;;8.01;89.91
47811;BME280;33575;52.600;7.318;2023-02-13T02:18:02;103584.46;;;8.03;89.62
47811;BME280;33575;52.600;7.318;2023-02-13T02:23:16;103585.83;;;8.05;89.64
47811;BME280;33575;52.600;7.318;2023-02-13T02:30:43;103584.81;;;8.07;89.78
47811;BME280;33575;52.600;7.318;2023-02-13T02:33:11;103583.72;;;8.08;89.62
47811;BME280;33575;52.600;7.318;2023-02-13T02:35:41;103575.59;;;8.10;89.65
47811;BME280;33575;52.600;7.318;2023-02-13T02:38:15;103572.67;;;8.11;89.46
47811;BME280;33575;52.600;7.318;2023-02-13T02:40:43;103567.54;;;8.09;88.96
47811;BME280;33575;52.600;7.318;2023-02-13T02:43:18;103568.36;;;8.06;88.88
47811;BME280;33575;52.600;7.318;2023-02-13T02:45:42;103568.51;;;8.05;89.32
47811;BME280;33575;52.600;7.318;2023-02-13T02:48:21;103569.18;;;8.03;89.49
47811;BME280;33575;52.600;7.318;2023-02-13T02:50:41;103563.09;;;8.04;89.51
47811;BME280;33575;52.600;7.318;2023-02-13T02:53:16;103563.40;;;8.04;89.41
47811;BME280;33575;52.600;7.318;2023-02-13T02:55:44;103562.58;;;8.02;89.35
47811;BME280;33575;52.600;7.318;2023-02-13T02:58:13;103562.30;;;7.99;88.80
47811;BME280;33575;52.600;7.318;2023-02-13T03:00:41;103565.21;;;7.94;89.40
47811;BME280;33575;52.600;7.318;2023-02-13T03:03:14;103563.60;;;7.92;89.76
47811;BME280;33575;52.600;7.318;2023-02-13T03:05:43;103565.70;;;7.91;89.71
47811;BME280;33575;52.600;7.318;2023-02-13T03:08:10;103568.80;;;7.90;89.91
47811;BME280;33575;52.600;7.318;2023-02-13T03:10:41;103568.08;;;7.91;90.30
47811;BME280;33575;52.600;7.318;2023-02-13T03:13:15;103568.75;;;7.88;90.22
47811;BME280;33575;52.600;7.318;2023-02-13T03:15:43;103564.33;;;7.87;89.95
47811;BME280;33575;52.600;7.318;2023-02-13T03:18:11;103562.05;;;7.79;89.54
47811;BME280;33575;52.600;7.318;2023-02-13T03:20:45;103561.21;;;7.77;90.12
47811;BME280;33575;52.600;7.318;2023-02-13T03:23:15;103560.55;;;7.79;90.21
47811;BME280;33575;52.600;7.318;2023-02-13T03:25:59;103557.46;;;7.80;89.74
47811;BME280;33575;52.600;7.318;2023-02-13T03:28:18;103555.42;;;7.82;90.31
47811;BME280;33575;52.600;7.318;2023-02-13T03:30:54;103554.23;;;7.86;89.78
47811;BME280;33575;52.600;7.318;2023-02-13T03:33:24;103554.28;;;7.88;89.78
47811;BME280;33575;52.600;7.318;2023-02-13T03:35:48;103550.33;;;7.90;89.77
47811;BME280;33575;52.600;7.318;2023-02-13T03:38:19;103547.54;;;7.89;90.09
47811;BME280;33575;52.600;7.318;2023-02-13T03:40:48;103546.78;;;7.90;90.16
47811;BME280;33575;52.600;7.318;2023-02-13T03:43:16;103549.86;;;7.86;90.06
47811;BME280;33575;52.600;7.318;2023-02-13T03:45:47;103548.63;;;7.82;90.44
47811;BME280;33575;52.600;7.318;2023-02-13T03:48:18;103555.90;;;7.81;90.19
47811;BME280;33575;52.600;7.318;2023-02-13T03:50:46;103555.16;;;7.78;89.65
47811;BME280;33575;52.600;7.318;2023-02-13T03:53:17;103555.55;;;7.79;90.14
47811;BME280;33575;52.600;7.318;2023-02-13T03:55:47;103552.72;;;7.82;90.22
47811;BME280;33575;52.600;7.318;2023-02-13T03:58:22;103553.21;;;7.84;90.19
47811;BME280;33575;52.600;7.318;2023-02-13T04:00:51;103550.55;;;7.86;90.12
47811;BME280;33575;52.600;7.318;2023-02-13T04:03:23;103549.03;;;7.87;90.35
47811;BME280;33575;52.600;7.318;2023-02-13T04:05:52;103551.37;;;7.85;90.28
47811;BME280;33575;52.600;7.318;2023-02-13T04:08:19;103548.77;;;7.88;89.70
47811;BME280;33575;52.600;7.318;2023-02-13T04:10:52;103545.58;;;7.88;89.82
47811;BME280;33575;52.600;7.318;2023-02-13T04:13:26;103545.71;;;7.86;89.45
47811;BME280;33575;52.600;7.318;2023-02-13T04:15:53;103552.02;;;7.84;89.78
47811;BME280;33575;52.600;7.318;2023-02-13T04:18:23;103550.73;;;7.83;99.24
47811;BME280;33575;52.600;7.318;2023-02-13T04:20:51;103553.14;;;7.81;93.26
47811;BME280;33575;52.600;7.318;2023-02-13T04:23:21;103553.23;;;7.84;92.36
47811;BME280;33575;52.600;7.318;2023-02-13T04:25:54;103552.93;;;7.85;91.58
47811;BME280;33575;52.600;7.318;2023-02-13T04:28:22;103558.66;;;7.86;90.93
47811;BME280;33575;52.600;7.318;2023-02-13T04:30:53;103556.95;;;7.86;91.15
47811;BME280;33575;52.600;7.318;2023-02-13T04:33:23;103558.22;;;7.86;90.90
47811;BME280;33575;52.600;7.318;2023-02-13T04:35:53;103557.99;;;7.87;91.06
47811;BME280;33575;52.600;7.318;2023-02-13T04:38:23;103555.43;;;7.87;91.00
47811;BME280;33575;52.600;7.318;2023-02-13T04:40:54;103554.94;;;7.89;90.60
47811;BME280;33575;52.600;7.318;2023-02-13T04:43:24;103553.44;;;7.90;90.84
47811;BME280;33575;52.600;7.318;2023-02-13T04:45:54;103550.01;;;7.92;90.54
47811;BME280;33575;52.600;7.318;2023-02-13T04:48:25;103545.63;;;7.93;89.70
47811;BME280;33575;52.600;7.318;2023-02-13T04:50:57;103540.52;;;7.91;89.95
47811;BME280;33575;52.600;7.318;2023-02-13T04:53:26;103540.29;;;7.88;89.59
47811;BME280;33575;52.600;7.318;2023-02-13T04:55:57;103533.45;;;7.85;89.71
47811;BME280;33575;52.600;7.318;2023-02-13T04:58:27;103535.68;;;7.81;89.56
47811;BME280;33575;52.600;7.318;2023-02-13T05:00:58;103538.42;;;7.74;89.26
47811;BME280;33575;52.600;7.318;2023-02-13T05:03:28;103534.87;;;7.69;90.05
47811;BME280;33575;52.600;7.318;2023-02-13T05:05:59;103535.03;;;7.67;89.97
47811;BME280;33575;52.600;7.318;2023-02-13T05:08:29;103533.19;;;7.64;89.43
47811;BME280;33575;52.600;7.318;2023-02-13T05:11:00;103534.88;;;7.64;89.81
47811;BME280;33575;52.600;7.318;2023-02-13T05:13:30;103535.17;;;7.64;89.52
47811;BME280;33575;52.600;7.318;2023-02-13T05:16:00;103535.35;;;7.62;89.56
47811;BME280;33575;52.600;7.318;2023-02-13T05:18:31;103535.76;;;7.60;90.26
47811;BME280;33575;52.600;7.318;2023-02-13T05:21:01;103540.21;;;7.60;90.12
47811;BME280;33575;52.600;7.318;2023-02-13T05:23:32;103545.85;;;7.61;89.95
47811;BME280;33575;52.600;7.318;2023-02-13T05:26:03;103548.75;;;7.64;89.81
47811;BME280;33575;52.600;7.318;2023-02-13T05:28:33;103548.34;;;7.66;90.26
47811;BME280;33575;52.600;7.318;2023-02-13T05:31:04;103550.93;;;7.69;90.12
47811;BME280;33575;52.600;7.318;2023-02-13T05:33:34;103550.16;;;7.71;89.64
47811;BME280;33575;52.600;7.318;2023-02-13T05:36:06;103549.49;;;7.72;89.91
47811;BME280;33575;52.600;7.318;2023-02-13T05:38:35;103548.43;;;7.74;89.71
47811;BME280;33575;52.600;7.318;2023-02-13T05:41:06;103544.94;;;7.75;90.06
47811;BME280;33575;52.600;7.318;2023-02-13T05:43:37;103544.53;;;7.75;88.92
47811;BME280;33575;52.600;7.318;2023-02-13T05:46:08;103547.37;;;7.71;89.54
47811;BME280;33575;52.600;7.318;2023-02-13T05:48:38;103546.21;;;7.67;90.10
47811;BME280;33575;52.600;7.318;2023-02-13T05:51:08;103550.64;;;7.68;90.04
47811;BME280;33575;52.600;7.318;2023-02-13T05:53:38;103549.91;;;7.69;89.46
47811;BME280;33575;52.600;7.318;2023-02-13T05:56:08;103549.26;;;7.69;89.76
47811;BME280;33575;52.600;7.318;2023-02-13T05:58:38;103549.65;;;7.68;89.93
47811;BME280;33575;52.600;7.318;2023-02-13T06:01:09;103551.85;;;7.67;89.67
47811;BME280;33575;52.600;7.318;2023-02-13T06:03:40;103555.94;;;7.68;89.88
47811;BME280;33575;52.600;7.318;2023-02-13T06:06:10;103554.32;;;7.68;89.23
47811;BME280;33575;52.600;7.318;2023-02-13T06:08:41;103559.98;;;7.69;89.38
47811;BME280;33575;52.600;7.318;2023-02-13T06:11:11;103556.56;;;7.69;89.57
47811;BME280;33575;52.600;7.318;2023-02-13T06:13:41;103558.71;;;7.67;89.88
47811;BME280;33575;52.600;7.318;2023-02-13T06:16:12;103558.84;;;7.63;89.48
47811;BME280;33575;52.600;7.318;2023-02-13T06:18:41;103560.81;;;7.60;89.63
47811;BME280;33575;52.600;7.318;2023-02-13T06:21:12;103563.32;;;7.60;89.72
47811;BME280;33575;52.600;7.318;2023-02-13T06:23:42;103565.63;;;7.60;89.58
47811;BME280;33575;52.600;7.318;2023-02-13T06:26:12;103567.44;;;7.60;89.50
47811;BME280;33575;52.600;7.318;2023-02-13T06:28:43;103569.44;;;7.59;89.11
47811;BME280;33575;52.600;7.318;2023-02-13T06:31:14;103568.46;;;7.59;88.98
47811;BME280;33575;52.600;7.318;2023-02-13T06:33:44;103565.23;;;7.60;89.83
47811;BME280;33575;52.600;7.318;2023-02-13T06:36:14;103569.33;;;7.63;89.96
47811;BME280;33575;52.600;7.318;2023-02-13T06:38:44;103570.01;;;7.64;89.50
47811;BME280;33575;52.600;7.318;2023-02-13T06:41:15;103573.60;;;7.64;89.35
47811;BME280;33575;52.600;7.318;2023-02-13T06:43:45;103573.94;;;7.63;89.79
47811;BME280;33575;52.600;7.318;2023-02-13T06:46:15;103577.05;;;7.64;89.69
47811;BME280;33575;52.600;7.318;2023-02-13T06:48:45;103580.16;;;7.65;89.87
47811;BME280;33575;52.600;7.318;2023-02-13T06:51:16;103577.96;;;7.64;89.29
47811;BME280;33575;52.600;7.318;2023-02-13T06:53:47;103582.85;;;7.64;89.77
47811;BME280;33575;52.600;7.318;2023-02-13T06:56:17;103589.50;;;7.65;89.54
47811;BME280;33575;52.600;7.318;2023-02-13T06:58:47;103594.57;;;7.64;89.42
47811;BME280;33575;52.600;7.318;2023-02-13T07:01:18;103596.40;;;7.65;89.57
47811;BME280;33575;52.600;7.318;2023-02-13T07:03:49;103596.64;;;7.67;89.83
47811;BME280;33575;52.600;7.318;2023-02-13T07:06:20;103601.91;;;7.66;89.77
47811;BME280;33575;52.600;7.318;2023-02-13T07:08:49;103602.17;;;7.64;90.27
47811;BME280;33575;52.600;7.318;2023-02-13T07:11:21;103604.47;;;7.65;90.20
47811;BME280;33575;52.600;7.318;2023-02-13T07:13:51;103604.65;;;7.67;89.99
47811;BME280;33575;52.600;7.318;2023-02-13T07:16:20;103604.60;;;7.66;90.20
47811;BME280;33575;52.600;7.318;2023-02-13T07:18:50;103603.63;;;7.67;89.89
47811;BME280;33575;52.600;7.318;2023-02-13T07:21:21;103606.38;;;7.70;90.05
47811;BME280;33575;52.600;7.318;2023-02-13T07:23:51;103607.32;;;7.67;89.88
47811;BME280;33575;52.600;7.318;2023-02-13T07:26:22;103608.89;;;7.62;90.17
47811;BME280;33575;52.600;7.318;2023-02-13T07:28:57;103609.75;;;7.59;90.55
47811;BME280;33575;52.600;7.318;2023-02-13T07:31:22;103608.66;;;7.62;90.42
47811;BME280;33575;52.600;7.318;2023-02-13T07:33:52;103610.60;;;7.61;90.31
47811;BME280;33575;52.600;7.318;2023-02-13T07:36:22;103613.37;;;7.60;90.20
47811;BME280;33575;52.600;7.318;2023-02-13T07:38:53;103610.29;;;7.58;89.93
47811;BME280;33575;52.600;7.318;2023-02-13T07:41:23;103611.55;;;7.53;89.98
47811;BME280;33575;52.600;7.318;2023-02-13T07:43:53;103609.00;;;7.53;90.41
47811;BME280;33575;52.600;7.318;2023-02-13T07:46:24;103609.27;;;7.55;90.82
47811;BME280;33575;52.600;7.318;2023-02-13T07:48:54;103607.03;;;7.62;90.78
47811;BME280;33575;52.600;7.318;2023-02-13T07:51:24;103605.77;;;7.66;90.69
47811;BME280;33575;52.600;7.318;2023-02-13T07:53:57;103606.64;;;7.71;90.82
47811;BME280;33575;52.600;7.318;2023-02-13T07:56:25;103609.78;;;7.75;90.34
47811;BME280;33575;52.600;7.318;2023-02-13T07:58:55;103604.95;;;7.78;90.55
47811;BME280;33575;52.600;7.318;2023-02-13T08:01:25;103606.39;;;7.81;90.58
47811;BME280;33575;52.600;7.318;2023-02-13T08:03:56;103603.71;;;7.84;90.25
47811;BME280;33575;52.600;7.318;2023-02-13T08:06:27;103604.71;;;7.85;90.33
47811;BME280;33575;52.600;7.318;2023-02-13T08:08:57;103604.18;;;7.84;90.36
47811;BME280;33575;52.600;7.318;2023-02-13T08:11:30;103601.81;;;7.84;90.68
47811;BME280;33575;52.600;7.318;2023-02-13T08:13:58;103600.54;;;7.85;90.63
47811;BME280;33575;52.600;7.318;2023-02-13T08:16:28;103605.89;;;7.89;90.58
47811;BME280;33575;52.600;7.318;2023-02-13T08:18:59;103602.64;;;7.89;90.67
47811;BME280;33575;52.600;7.318;2023-02-13T08:21:30;103599.81;;;7.91;90.78
47811;BME280;33575;52.600;7.318;2023-02-13T08:24:00;103600.25;;;7.91;90.81
47811;BME280;33575;52.600;7.318;2023-02-13T08:26:31;103598.30;;;7.93;90.75
47811;BME280;33575;52.600;7.318;2023-02-13T08:29:03;103597.33;;;7.97;90.74
47811;BME280;33575;52.600;7.318;2023-02-13T08:31:32;103599.14;;;7.99;90.74
47811;BME280;33575;52.600;7.318;2023-02-13T08:34:02;103599.95;;;7.99;90.68
47811;BME280;33575;52.600;7.318;2023-02-13T08:36:32;103604.82;;;7.99;90.86
47811;BME280;33575;52.600;7.318;2023-02-13T08:39:02;103604.47;;;8.01;90.79
47811;BME280;33575;52.600;7.318;2023-02-13T08:41:32;103603.00;;;8.03;90.67
47811;BME280;33575;52.600;7.318;2023-02-13T08:44:03;103601.55;;;8.04;90.83
47811;BME280;33575;52.600;7.318;2023-02-13T08:46:33;103599.90;;;8.05;90.88
47811;BME280;33575;52.600;7.318;2023-02-13T08:49:04;103599.15;;;8.04;91.09
47811;BME280;33575;52.600;7.318;2023-02-13T08:51:34;103601.04;;;8.01;91.24
47811;BME280;33575;52.600;7.318;2023-02-13T08:54:05;103607.47;;;8.02;91.17
47811;BME280;33575;52.600;7.318;2023-02-13T08:56:35;103607.77;;;8.04;91.24
47811;BME280;33575;52.600;7.318;2023-02-13T08:59:06;103606.65;;;8.09;91.33
47811;BME280;33575;52.600;7.318;2023-02-13T09:01:37;103610.61;;;8.13;91.50
47811;BME280;33575;52.600;7.318;2023-02-13T09:04:08;103614.16;;;8.17;91.30
47811;BME280;33575;52.600;7.318;2023-02-13T09:06:38;103613.42;;;8.20;91.12
47811;BME280;33575;52.600;7.318;2023-02-13T09:09:08;103616.25;;;8.23;91.35
47811;BME280;33575;52.600;7.318;2023-02-13T09:11:39;103617.30;;;8.26;91.35
47811;BME280;33575;52.600;7.318;2023-02-13T09:14:09;103622.60;;;8.29;91.16
47811;BME280;33575;52.600;7.318;2023-02-13T09:16:39;103623.54;;;8.32;91.38
47811;BME280;33575;52.600;7.318;2023-02-13T09:19:09;103625.94;;;8.36;91.39
47811;BME280;33575;52.600;7.318;2023-02-13T09:21:39;103630.82;;;8.42;91.31
47811;BME280;33575;52.600;7.318;2023-02-13T09:24:10;103629.08;;;8.47;91.18
47811;BME280;33575;52.600;7.318;2023-02-13T09:26:40;103632.43;;;8.53;91.14
47811;BME280;33575;52.600;7.318;2023-02-13T09:29:10;103633.24;;;8.55;91.36
47811;BME280;33575;52.600;7.318;2023-02-13T09:31:41;103636.97;;;8.59;91.31
47811;BME280;33575;52.600;7.318;2023-02-13T09:34:11;103637.39;;;8.64;91.28
47811;BME280;33575;52.600;7.318;2023-02-13T09:36:41;103637.43;;;8.67;91.23
47811;BME280;33575;52.600;7.318;2023-02-13T09:39:12;103634.57;;;8.69;90.87
47811;BME280;33575;52.600;7.318;2023-02-13T09:41:44;103639.10;;;8.75;90.91
47811;BME280;33575;52.600;7.318;2023-02-13T09:44:15;103635.94;;;8.79;91.05
47811;BME280;33575;52.600;7.318;2023-02-13T09:46:43;103636.80;;;8.83;91.02
47811;BME280;33575;52.600;7.318;2023-02-13T09:49:18;103637.20;;;8.83;90.76
47811;BME280;33575;52.600;7.318;2023-02-13T09:51:47;103643.35;;;8.82;91.23
47811;BME280;33575;52.600;7.318;2023-02-13T09:54:15;103642.15;;;8.83;91.52
47811;BME280;33575;52.600;7.318;2023-02-13T09:56:50;103638.11;;;8.86;91.36
47811;BME280;33575;52.600;7.318;2023-02-13T09:59:28;103639.03;;;8.87;91.31
47811;BME280;33575;52.600;7.318;2023-02-13T10:01:48;103635.32;;;8.88;91.19
47811;BME280;33575;52.600;7.318;2023-02-13T10:04:24;103632.07;;;8.89;91.02
47811;BME280;33575;52.600;7.318;2023-02-13T10:06:52;103630.38;;;8.87;90.98
47811;BME280;33575;52.600;7.318;2023-02-13T10:09:26;103634.09;;;8.85;91.40
47811;BME280;33575;52.600;7.318;2023-02-13T10:12:01;103634.68;;;8.81;91.38
47811;BME280;33575;52.600;7.318;2023-02-13T10:14:22;103634.28;;;8.81;91.42
47811;BME280;33575;52.600;7.318;2023-02-13T10:16:51;103635.02;;;8.84;91.30
47811;BME280;33575;52.600;7.318;2023-02-13T10:19:30;103633.41;;;8.86;91.58
47811;BME280;33575;52.600;7.318;2023-02-13T10:21:51;103631.92;;;8.85;91.47
47811;BME280;33575;52.600;7.318;2023-02-13T10:24:28;103630.55;;;8.82;91.41
47811;BME280;33575;52.600;7.318;2023-02-13T10:26:51;103627.32;;;8.81;91.79
47811;BME280;33575;52.600;7.318;2023-02-13T10:29:24;103625.13;;;8.82;93.90
47811;BME280;33575;52.600;7.318;2023-02-13T10:31:53;103621.06;;;8.90;92.89
47811;BME280;33575;52.600;7.318;2023-02-13T10:34:25;103616.44;;;8.93;92.54
47811;BME280;33575;52.600;7.318;2023-02-13T10:36:52;103614.67;;;8.98;92.06
47811;BME280;33575;52.600;7.318;2023-02-13T10:39:24;103614.28;;;9.00;91.90
47811;BME280;33575;52.600;7.318;2023-02-13T10:41:54;103612.62;;;9.00;92.14
47811;BME280;33575;52.600;7.318;2023-02-13T10:44:37;103616.25;;;9.07;92.01
47811;BME280;33575;52.600;7.318;2023-02-13T10:47:01;103612.31;;;9.15;91.69
47811;BME280;33575;52.600;7.318;2023-02-13T10:49:33;103613.63;;;9.18;91.64
47811;BME280;33575;52.600;7.318;2023-02-13T10:52:01;103614.67;;;9.18;91.60
47811;BME280;33575;52.600;7.318;2023-02-13T10:54:38;103612.24;;;9.24;91.11
47811;BME280;33575;52.600;7.318;2023-02-13T10:57:02;103616.40;;;9.25;90.57
47811;BME280;33575;52.600;7.318;2023-02-13T10:59:39;103611.10;;;9.28;91.27
47811;BME280;33575;52.600;7.318;2023-02-13T11:01:57;103609.86;;;9.37;91.37
47811;BME280;33575;52.600;7.318;2023-02-13T11:04:27;103604.64;;;9.46;90.57
47811;BME280;33575;52.600;7.318;2023-02-13T11:06:58;103601.94;;;9.51;90.83
47811;BME280;33575;52.600;7.318;2023-02-13T11:09:27;103599.35;;;9.61;90.34
47811;BME280;33575;52.600;7.318;2023-02-13T11:11:56;103593.67;;;9.71;90.25
47811;BME280;33575;52.600;7.318;2023-02-13T11:14:26;103592.79;;;9.77;90.10
47811;BME280;33575;52.600;7.318;2023-02-13T11:17:00;103592.91;;;9.79;89.51
47811;BME280;33575;52.600;7.318;2023-02-13T11:19:31;103588.94;;;9.86;89.76
47811;BME280;33575;52.600;7.318;2023-02-13T11:22:02;103594.57;;;9.90;89.28
47811;BME280;33575;52.600;7.318;2023-02-13T11:24:29;103595.29;;;9.94;89.16
47811;BME280;33575;52.600;7.318;2023-02-13T11:27:02;103593.82;;;9.94;88.37
47811;BME280;33575;52.600;7.318;2023-02-13T11:29:32;103591.39;;;9.92;88.71
47811;BME280;33575;52.600;7.318;2023-02-13T11:32:06;103589.17;;;9.93;88.82
47811;BME280;33575;52.600;7.318;2023-02-13T11:34:32;103587.88;;;10.00;88.86
47811;BME280;33575;52.600;7.318;2023-02-13T11:37:12;103584.79;;;10.04;88.42
47811;BME280;33575;52.600;7.318;2023-02-13T11:39:32;103583.61;;;10.08;88.47
47811;BME280;33575;52.600;7.318;2023-02-13T11:42:03;103585.62;;;10.09;88.31
47811;BME280;33575;52.600;7.318;2023-02-13T11:44:33;103582.44;;;10.11;88.15
47811;BME280;33575;52.600;7.318;2023-02-13T11:47:04;103581.59;;;10.12;87.85
47811;BME280;33575;52.600;7.318;2023-02-13T11:49:36;103577.95;;;10.15;87.56
47811;BME280;33575;52.600;7.318;2023-02-13T11:52:05;103575.87;;;10.14;87.12
47811;BME280;33575;52.600;7.318;2023-02-13T11:54:35;103568.65;;;10.13;87.34
47811;BME280;33575;52.600;7.318;2023-02-13T11:57:17;103565.60;;;10.11;86.89
47811;BME280;33575;52.600;7.318;2023-02-13T11:59:40;103559.95;;;9.99;86.60
47811;BME280;33575;52.600;7.318;2023-02-13T12:02:12;103561.86;;;9.95;87.08
47811;BME280;33575;52.600;7.318;2023-02-13T12:04:36;103562.60;;;9.98;87.22
47811;BME280;33575;52.600;7.318;2023-02-13T12:07:14;103559.30;;;10.04;87.33
47811;BME280;33575;52.600;7.318;2023-02-13T12:09:38;103555.94;;;10.08;87.01
47811;BME280;33575;52.600;7.318;2023-02-13T12:12:15;103553.91;;;10.12;87.19
47811;BME280;33575;52.600;7.318;2023-02-13T12:14:42;103552.38;;;10.18;86.91
47811;BME280;33575;52.600;7.318;2023-02-13T12:17:17;103549.20;;;10.20;86.24
47811;BME280;33575;52.600;7.318;2023-02-13T12:19:42;103549.94;;;10.19;86.04
47811;BME280;33575;52.600;7.318;2023-02-13T12:22:20;103545.92;;;10.19;86.37
47811;BME280;33575;52.600;7.318;2023-02-13T12:24:50;103544.27;;;10.26;86.28
47811;BME280;33575;52.600;7.318;2023-02-13T12:27:17;103543.38;;;10.29;86.06
47811;BME280;33575;52.600;7.318;2023-02-13T12:29:55;103540.82;;;10.29;85.94
47811;BME280;33575;52.600;7.318;2023-02-13T12:32:17;103543.45;;;10.28;85.90
47811;BME280;33575;52.600;7.318;2023-02-13T12:34:56;103541.20;;;10.26;85.69
47811;BME280;33575;52.600;7.318;2023-02-13T12:37:22;103539.80;;;10.24;85.63
47811;BME280;33575;52.600;7.318;2023-02-13T12:39:52;103539.64;;;10.28;85.76
47811;BME280;33575;52.600;7.318;2023-02-13T12:42:25;103538.07;;;10.27;85.78
47811;BME280;33575;52.600;7.318;2023-02-13T12:47:18;103538.42;;;10.32;86.15
47811;BME280;33575;52.600;7.318;2023-02-13T12:50:00;103538.70;;;10.36;85.55
47811;BME280;33575;52.600;7.318;2023-02-13T12:52:29;103534.49;;;10.23;85.25
47811;BME280;33575;52.600;7.318;2023-02-13T12:54:54;103523.99;;;10.20;86.08
47811;BME280;33575;52.600;7.318;2023-02-13T12:57:28;103524.83;;;10.23;86.15
47811;BME280;33575;52.600;7.318;2023-02-13T13:00:02;103518.80;;;10.17;85.69
47811;BME280;33575;52.600;7.318;2023-02-13T13:04:57;103515.96;;;10.19;85.20
47811;BME280;33575;52.600;7.318;2023-02-13T13:07:30;103513.77;;;10.13;84.39
47811;BME280;33575;52.600;7.318;2023-02-13T13:09:59;103506.53;;;10.05;84.40
47811;BME280;33575;52.600;7.318;2023-02-13T13:12:28;103503.58;;;9.96;84.75
47811;BME280;33575;52.600;7.318;2023-02-13T13:14:54;103501.48;;;9.98;84.97
47811;BME280;33575;52.600;7.318;2023-02-13T13:17:31;103499.26;;;10.06;86.36
47811;BME280;33575;52.600;7.318;2023-02-13T13:19:59;103499.88;;;10.24;85.55
47811;BME280;33575;52.600;7.318;2023-02-13T13:22:26;103497.09;;;10.40;85.71
47811;BME280;33575;52.600;7.318;2023-02-13T13:24:58;103496.80;;;10.55;85.49
47811;BME280;33575;52.600;7.318;2023-02-13T13:27:25;103493.38;;;10.64;84.33
47811;BME280;33575;52.600;7.318;2023-02-13T13:29:56;103494.05;;;10.67;84.62